sensor_id;sensor_type;location;lat;lon;timestamp;pressure;altitude;pressure_sealevel;temperature;humidity
22181;BME280;11256;50.830;12.834;2023-03-03T00:02:46;98021.94;;;3.48;55.52
22181;BME280;11256;50.830;12.834;2023-03-03T00:07:46;98029.28;;;3.53;55.72
22181;BME280;11256;50.830;12.834;2023-03-03T00:12:48;98036.66;;;3.57;55.96
22181;BME280;11256;50.830;12.834;2023-03-03T00:17:51;98022.91;;;3.65;55.94
22181;BME280;11256;50.830;12.834;2023-03-03T00:22:51;98033.28;;;3.62;56.16
22181;BME280;11256;50.830;12.834;2023-03-03T00:27:52;98029.38;;;3.76;56.38
22181;BME280;11256;50.830;12.834;2023-03-03T00:32:53;98029.56;;;3.63;56.30
22181;BME280;11256;50.830;12.834;2023-03-03T00:37:57;98033.28;;;3.62;56.42
22181;BME280;11256;50.830;12.834;2023-03-03T00:42:59;98043.66;;;3.70;56.00
22181;BME280;11256;50.830;12.834;2023-03-03T00:48:31;98040.63;;;3.66;56.38
22181;BME280;11256;50.830;12.834;2023-03-03T00:53:29;98039.72;;;3.72;56.69
22181;BME280;11256;50.830;12.834;2023-03-03T00:58:29;98037.03;;;3.72;56.37
22181;BME280;11256;50.830;12.834;2023-03-03T01:03:31;98034.75;;;3.76;56.67
22181;BME280;11256;50.830;12.834;2023-03-03T01:08:32;98035.91;;;3.80;56.38
22181;BME280;11256;50.830;12.834;2023-03-03T01:13:33;98028.56;;;3.75;56.75
22181;BME280;11256;50.830;12.834;2023-03-03T01:18:35;98025.88;;;3.75;56.45
22181;BME280;11256;50.830;12.834;2023-03-03T01:23:36;98031.44;;;3.74;56.49
22181;BME280;11256;50.830;12.834;2023-03-03T01:28:36;98024.47;;;3.73;56.61
22181;BME280;11256;50.830;12.834;2023-03-03T01:33:37;98031.44;;;3.74;57.01
22181;BME280;11256;50.830;12.834;2023-03-03T01:38:38;98025.38;;;3.67;57.19
22181;BME280;11256;50.830;12.834;2023-03-03T01:43:46;98031.66;;;3.72;57.06
22181;BME280;11256;50.830;12.834;2023-03-03T01:48:47;98032.28;;;3.74;56.87
22181;BME280;11256;50.830;12.834;2023-03-03T01:54:37;98024.09;;;3.69;57.01
22181;BME280;11256;50.830;12.834;2023-03-03T01:59:19;98038.19;;;3.65;57.23
22181;BME280;11256;50.830;12.834;2023-03-03T02:04:20;98037.44;;;3.58;57.71
22181;BME280;11256;50.830;12.834;2023-03-03T02:09:26;98045.63;;;3.63;57.52
22181;BME280;11256;50.830;12.834;2023-03-03T02:14:28;98044.69;;;3.57;57.11
22181;BME280;11256;50.830;12.834;2023-03-03T02:24:53;98007.47;;;3.38;57.29
22181;BME280;11256;50.830;12.834;2023-03-03T02:29:56;98021.09;;;3.48;57.70
22181;BME280;11256;50.830;12.834;2023-03-03T02:34:57;98006.41;;;3.39;57.69
22181;BME280;11256;50.830;12.834;2023-03-03T02:39:58;98005.31;;;3.28;57.53
22181;BME280;11256;50.830;12.834;2023-03-03T02:44:58;98009.88;;;3.28;58.09
22181;BME280;11256;50.830;12.834;2023-03-03T02:49:59;98015.28;;;3.21;58.61
22181;BME280;11256;50.830;12.834;2023-03-03T02:54:59;98020.06;;;3.19;58.14
22181;BME280;11256;50.830;12.834;2023-03-03T02:59:59;98003.09;;;3.07;58.57
22181;BME280;11256;50.830;12.834;2023-03-03T03:05:00;98025.19;;;3.21;57.95
22181;BME280;11256;50.830;12.834;2023-03-03T03:10:01;98023.41;;;3.15;58.44
22181;BME280;11256;50.830;12.834;2023-03-03T03:15:05;98023.50;;;3.08;58.59
22181;BME280;11256;50.830;12.834;2023-03-03T03:20:06;98024.53;;;3.07;58.59
22181;BME280;11256;50.830;12.834;2023-03-03T03:25:07;97998.47;;;2.85;58.73
22181;BME280;11256;50.830;12.834;2023-03-03T03:30:08;98026.69;;;2.99;59.06
22181;BME280;11256;50.830;12.834;2023-03-03T03:35:09;98046.47;;;2.98;59.21
22181;BME280;11256;50.830;12.834;2023-03-03T03:40:11;98030.03;;;2.94;59.16
22181;BME280;11256;50.830;12.834;2023-03-03T03:45:13;98041.25;;;3.03;59.48
22181;BME280;11256;50.830;12.834;2023-03-03T03:50:15;98028.06;;;2.90;59.10
22181;BME280;11256;50.830;12.834;2023-03-03T03:55:17;98027.00;;;2.91;59.25
22181;BME280;11256;50.830;12.834;2023-03-03T04:00:17;98033.41;;;2.90;59.20
22181;BME280;11256;50.830;12.834;2023-03-03T04:05:24;98023.59;;;2.84;59.29
22181;BME280;11256;50.830;12.834;2023-03-03T04:10:25;98014.16;;;2.81;59.08
22181;BME280;11256;50.830;12.834;2023-03-03T04:15:26;98016.75;;;2.70;59.00
22181;BME280;11256;50.830;12.834;2023-03-03T04:20:28;98033.38;;;2.72;59.86
22181;BME280;11256;50.830;12.834;2023-03-03T04:25:29;98028.03;;;2.72;59.92
22181;BME280;11256;50.830;12.834;2023-03-03T04:30:30;98039.63;;;2.66;60.06
22181;BME280;11256;50.830;12.834;2023-03-03T04:35:32;98050.84;;;2.74;60.94
22181;BME280;11256;50.830;12.834;2023-03-03T04:40:33;98049.81;;;2.75;60.48
22181;BME280;11256;50.830;12.834;2023-03-03T04:45:35;98043.97;;;2.67;60.48
22181;BME280;11256;50.830;12.834;2023-03-03T04:50:36;98054.13;;;2.76;60.40
22181;BME280;11256;50.830;12.834;2023-03-03T04:55:37;98051.09;;;2.73;59.80
22181;BME280;11256;50.830;12.834;2023-03-03T05:00:38;98059.84;;;2.80;60.08
22181;BME280;11256;50.830;12.834;2023-03-03T05:05:40;98067.28;;;2.78;59.93
22181;BME280;11256;50.830;12.834;2023-03-03T05:10:41;98054.94;;;2.77;60.53
22181;BME280;11256;50.830;12.834;2023-03-03T05:15:41;98072.94;;;2.88;60.09
22181;BME280;11256;50.830;12.834;2023-03-03T05:20:42;98088.34;;;2.92;60.52
22181;BME280;11256;50.830;12.834;2023-03-03T05:25:42;98091.06;;;2.86;60.42
22181;BME280;11256;50.830;12.834;2023-03-03T05:30:43;98092.53;;;2.82;59.97
22181;BME280;11256;50.830;12.834;2023-03-03T05:35:43;98088.09;;;2.76;60.00
22181;BME280;11256;50.830;12.834;2023-03-03T05:40:45;98112.53;;;2.79;60.62
22181;BME280;11256;50.830;12.834;2023-03-03T05:45:46;98115.00;;;2.81;60.50
22181;BME280;11256;50.830;12.834;2023-03-03T05:50:46;98093.28;;;2.71;59.71
22181;BME280;11256;50.830;12.834;2023-03-03T05:55:46;98107.69;;;2.70;60.47
22181;BME280;11256;50.830;12.834;2023-03-03T06:00:47;98102.84;;;2.60;60.42
22181;BME280;11256;50.830;12.834;2023-03-03T06:05:47;98102.03;;;2.60;60.58
22181;BME280;11256;50.830;12.834;2023-03-03T06:10:47;98087.31;;;2.51;60.43
22181;BME280;11256;50.830;12.834;2023-03-03T06:15:49;98090.84;;;2.45;60.49
22181;BME280;11256;50.830;12.834;2023-03-03T06:20:53;98107.91;;;2.44;60.87
22181;BME280;11256;50.830;12.834;2023-03-03T06:25:54;98098.09;;;2.38;60.42
22181;BME280;11256;50.830;12.834;2023-03-03T06:30:54;98118.63;;;2.44;60.64
22181;BME280;11256;50.830;12.834;2023-03-03T06:35:55;98117.88;;;2.37;61.13
22181;BME280;11256;50.830;12.834;2023-03-03T06:40:55;98113.97;;;2.33;60.98
22181;BME280;11256;50.830;12.834;2023-03-03T06:45:56;98106.78;;;2.33;60.94
22181;BME280;11256;50.830;12.834;2023-03-03T06:50:58;98100.59;;;2.33;60.95
22181;BME280;11256;50.830;12.834;2023-03-03T06:56:00;98105.63;;;2.23;61.15
22181;BME280;11256;50.830;12.834;2023-03-03T07:01:01;98097.41;;;2.24;61.63
22181;BME280;11256;50.830;12.834;2023-03-03T07:06:28;98104.44;;;2.19;61.28
22181;BME280;11256;50.830;12.834;2023-03-03T07:11:29;98110.53;;;2.26;61.14
22181;BME280;11256;50.830;12.834;2023-03-03T07:16:30;98097.88;;;2.15;61.61
22181;BME280;11256;50.830;12.834;2023-03-03T07:21:35;98130.69;;;2.28;61.63
22181;BME280;11256;50.830;12.834;2023-03-03T07:26:36;98140.72;;;2.33;62.00
22181;BME280;11256;50.830;12.834;2023-03-03T07:31:39;98142.59;;;2.32;61.38
22181;BME280;11256;50.830;12.834;2023-03-03T07:36:39;98150.38;;;2.34;61.52
22181;BME280;11256;50.830;12.834;2023-03-03T07:41:40;98170.13;;;2.33;61.76
22181;BME280;11256;50.830;12.834;2023-03-03T07:46:46;98177.06;;;2.40;61.77
22181;BME280;11256;50.830;12.834;2023-03-03T07:51:52;98163.91;;;2.39;61.78
22181;BME280;11256;50.830;12.834;2023-03-03T07:57:10;98165.13;;;2.43;62.51
22181;BME280;11256;50.830;12.834;2023-03-03T08:07:38;98173.66;;;2.58;62.07
22181;BME280;11256;50.830;12.834;2023-03-03T08:12:40;98180.19;;;2.62;62.41
22181;BME280;11256;50.830;12.834;2023-03-03T08:17:41;98174.41;;;2.65;62.16
22181;BME280;11256;50.830;12.834;2023-03-03T08:22:41;98180.38;;;2.67;62.54
22181;BME280;11256;50.830;12.834;2023-03-03T08:27:42;98188.69;;;2.77;62.47
22181;BME280;11256;50.830;12.834;2023-03-03T08:32:43;98175.94;;;2.79;62.47
22181;BME280;11256;50.830;12.834;2023-03-03T08:37:43;98179.22;;;2.81;62.46
22181;BME280;11256;50.830;12.834;2023-03-03T08:42:44;98174.72;;;2.75;62.29
22181;BME280;11256;50.830;12.834;2023-03-03T08:47:44;98169.38;;;2.75;62.65
22181;BME280;11256;50.830;12.834;2023-03-03T08:52:45;98183.69;;;2.87;62.10
22181;BME280;11256;50.830;12.834;2023-03-03T08:57:45;98186.97;;;2.89;62.71
22181;BME280;11256;50.830;12.834;2023-03-03T09:02:46;98190.66;;;2.88;63.10
22181;BME280;11256;50.830;12.834;2023-03-03T09:07:47;98187.97;;;2.88;62.43
22181;BME280;11256;50.830;12.834;2023-03-03T09:12:48;98193.13;;;2.89;62.94
22181;BME280;11256;50.830;12.834;2023-03-03T09:17:49;98187.72;;;2.96;62.95
22181;BME280;11256;50.830;12.834;2023-03-03T09:22:49;98183.13;;;3.03;63.10
22181;BME280;11256;50.830;12.834;2023-03-03T09:27:52;98195.25;;;3.05;62.97
22181;BME280;11256;50.830;12.834;2023-03-03T09:32:55;98204.09;;;3.06;62.78
22181;BME280;11256;50.830;12.834;2023-03-03T09:37:57;98195.03;;;3.07;62.98
22181;BME280;11256;50.830;12.834;2023-03-03T09:43:17;98199.94;;;3.10;63.03
22181;BME280;11256;50.830;12.834;2023-03-03T09:48:35;98212.88;;;3.13;63.38
22181;BME280;11256;50.830;12.834;2023-03-03T09:54:07;98216.75;;;3.17;63.34
22181;BME280;11256;50.830;12.834;2023-03-03T10:04:58;98216.69;;;3.23;63.50
22181;BME280;11256;50.830;12.834;2023-03-03T10:15:26;98215.78;;;3.29;63.28
22181;BME280;11256;50.830;12.834;2023-03-03T10:31:56;98226.03;;;3.39;63.36
22181;BME280;11256;50.830;12.834;2023-03-03T10:37:17;98223.50;;;3.44;63.33
22181;BME280;11256;50.830;12.834;2023-03-03T10:53:21;98216.19;;;3.51;63.35
22181;BME280;11256;50.830;12.834;2023-03-03T10:58:38;98234.06;;;3.57;63.58
22181;BME280;11256;50.830;12.834;2023-03-03T11:09:18;98242.25;;;3.62;63.43
22181;BME280;11256;50.830;12.834;2023-03-03T11:19:44;98232.72;;;3.66;63.11
22181;BME280;11256;50.830;12.834;2023-03-03T11:30:27;98230.22;;;3.71;63.45
22181;BME280;11256;50.830;12.834;2023-03-03T11:35:34;98232.22;;;3.75;63.45
22181;BME280;11256;50.830;12.834;2023-03-03T11:40:50;98210.25;;;3.67;63.24
22181;BME280;11256;50.830;12.834;2023-03-03T11:45:56;98217.53;;;3.78;63.11
22181;BME280;11256;50.830;12.834;2023-03-03T11:51:05;98203.00;;;3.67;63.03
22181;BME280;11256;50.830;12.834;2023-03-03T12:06:39;98209.78;;;3.88;63.56
22181;BME280;11256;50.830;12.834;2023-03-03T12:11:53;98199.16;;;3.81;63.06
22181;BME280;11256;50.830;12.834;2023-03-03T12:17:00;98201.28;;;3.91;63.12
22181;BME280;11256;50.830;12.834;2023-03-03T12:22:30;98198.75;;;3.96;63.39
22181;BME280;11256;50.830;12.834;2023-03-03T12:27:42;98209.47;;;3.96;63.22
22181;BME280;11256;50.830;12.834;2023-03-03T12:38:25;98212.63;;;3.93;63.00
22181;BME280;11256;50.830;12.834;2023-03-03T12:43:46;98204.81;;;3.91;63.27
22181;BME280;11256;50.830;12.834;2023-03-03T12:48:53;98200.84;;;3.94;63.15
22181;BME280;11256;50.830;12.834;2023-03-03T13:04:55;98185.34;;;3.96;63.11
22181;BME280;11256;50.830;12.834;2023-03-03T13:15:27;98173.56;;;3.97;63.29
22181;BME280;11256;50.830;12.834;2023-03-03T13:20:35;98166.00;;;3.94;63.16
22181;BME280;11256;50.830;12.834;2023-03-03T13:25:45;98176.53;;;4.07;63.74
22181;BME280;11256;50.830;12.834;2023-03-03T13:30:49;98152.53;;;3.82;63.24
22181;BME280;11256;50.830;12.834;2023-03-03T13:35:58;98175.25;;;3.98;63.29
22181;BME280;11256;50.830;12.834;2023-03-03T13:46:41;98180.72;;;4.03;63.35
22181;BME280;11256;50.830;12.834;2023-03-03T13:52:06;98185.72;;;3.99;63.55
22181;BME280;11256;50.830;12.834;2023-03-03T14:07:53;98177.53;;;3.94;63.02
22181;BME280;11256;50.830;12.834;2023-03-03T14:13:08;98185.34;;;3.96;63.22
22181;BME280;11256;50.830;12.834;2023-03-03T14:18:30;98173.44;;;3.92;63.25
22181;BME280;11256;50.830;12.834;2023-03-03T14:23:54;98159.91;;;3.87;62.89
22181;BME280;11256;50.830;12.834;2023-03-03T14:29:20;98141.47;;;3.79;63.01
22181;BME280;11256;50.830;12.834;2023-03-03T14:39:33;98167.28;;;3.91;63.19
22181;BME280;11256;50.830;12.834;2023-03-03T14:44:49;98166.69;;;3.89;63.05
22181;BME280;11256;50.830;12.834;2023-03-03T14:49:54;98164.81;;;3.90;62.89
22181;BME280;11256;50.830;12.834;2023-03-03T14:54:59;98154.09;;;3.90;62.83
22181;BME280;11256;50.830;12.834;2023-03-03T15:05:21;98126.09;;;3.86;62.61
22181;BME280;11256;50.830;12.834;2023-03-03T15:10:37;98119.78;;;3.80;62.85
22181;BME280;11256;50.830;12.834;2023-03-03T15:26:47;98110.00;;;3.86;62.69
22181;BME280;11256;50.830;12.834;2023-03-03T15:32:24;98111.06;;;3.85;62.81
22181;BME280;11256;50.830;12.834;2023-03-03T15:43:13;98119.56;;;3.82;62.65
22181;BME280;11256;50.830;12.834;2023-03-03T15:48:33;98110.94;;;3.80;62.71
22181;BME280;11256;50.830;12.834;2023-03-03T16:04:13;98104.44;;;3.58;62.37
22181;BME280;11256;50.830;12.834;2023-03-03T16:09:26;98103.84;;;3.56;62.27
22181;BME280;11256;50.830;12.834;2023-03-03T16:14:45;98111.25;;;3.54;62.44
22181;BME280;11256;50.830;12.834;2023-03-03T16:20:04;98126.06;;;3.56;62.01
22181;BME280;11256;50.830;12.834;2023-03-03T16:30:32;98131.97;;;3.47;62.00
22181;BME280;11256;50.830;12.834;2023-03-03T16:35:38;98128.78;;;3.38;62.14
22181;BME280;11256;50.830;12.834;2023-03-03T16:40:49;98124.31;;;3.32;62.29
22181;BME280;11256;50.830;12.834;2023-03-03T16:45:56;98140.38;;;3.32;61.94
22181;BME280;11256;50.830;12.834;2023-03-03T16:51:22;98138.13;;;3.29;62.11
22181;BME280;11256;50.830;12.834;2023-03-03T16:56:51;98146.06;;;3.24;62.03
22181;BME280;11256;50.830;12.834;2023-03-03T17:18:10;98137.78;;;3.08;62.34
22181;BME280;11256;50.830;12.834;2023-03-03T17:23:41;98139.88;;;3.06;62.57
22181;BME280;11256;50.830;12.834;2023-03-03T17:34:22;98157.19;;;3.03;63.07
22181;BME280;11256;50.830;12.834;2023-03-03T17:55:50;98153.50;;;2.98;62.55
22181;BME280;11256;50.830;12.834;2023-03-03T18:11:57;98159.31;;;2.95;63.13
22181;BME280;11256;50.830;12.834;2023-03-03T18:22:21;98160.22;;;2.89;62.89
22181;BME280;11256;50.830;12.834;2023-03-03T18:32:23;98154.25;;;2.87;63.29
22181;BME280;11256;50.830;12.834;2023-03-03T18:42:41;98157.97;;;2.86;63.10
22181;BME280;11256;50.830;12.834;2023-03-03T18:48:14;98166.56;;;2.88;63.01
22181;BME280;11256;50.830;12.834;2023-03-03T18:53:30;98174.22;;;2.84;63.09
22181;BME280;11256;50.830;12.834;2023-03-03T18:58:36;98160.25;;;2.82;63.72
22181;BME280;11256;50.830;12.834;2023-03-03T19:08:53;98166.88;;;2.80;63.02
22181;BME280;11256;50.830;12.834;2023-03-03T19:14:35;98173.47;;;2.77;63.61
22181;BME280;11256;50.830;12.834;2023-03-03T19:20:13;98161.16;;;2.76;63.04
22181;BME280;11256;50.830;12.834;2023-03-03T19:25:23;98154.22;;;2.69;64.12
22181;BME280;11256;50.830;12.834;2023-03-03T19:30:38;98175.03;;;2.67;63.30
22181;BME280;11256;50.830;12.834;2023-03-03T19:35:53;98168.63;;;2.68;63.54
22181;BME280;11256;50.830;12.834;2023-03-03T19:41:23;98156.38;;;2.54;63.91
22181;BME280;11256;50.830;12.834;2023-03-03T19:46:51;98168.13;;;2.53;63.48
22181;BME280;11256;50.830;12.834;2023-03-03T20:08:43;98174.69;;;2.57;64.64
22181;BME280;11256;50.830;12.834;2023-03-03T20:13:48;98182.72;;;2.57;63.84
22181;BME280;11256;50.830;12.834;2023-03-03T20:19:01;98169.41;;;2.44;64.10
22181;BME280;11256;50.830;12.834;2023-03-03T20:24:42;98174.94;;;2.49;64.48
22181;BME280;11256;50.830;12.834;2023-03-03T20:30:16;98154.53;;;2.54;64.34
22181;BME280;11256;50.830;12.834;2023-03-03T20:35:46;98149.63;;;2.51;64.38
22181;BME280;11256;50.830;12.834;2023-03-03T20:46:38;98152.97;;;2.47;64.71
22181;BME280;11256;50.830;12.834;2023-03-03T20:51:47;98149.84;;;2.50;64.87
22181;BME280;11256;50.830;12.834;2023-03-03T21:02:16;98155.13;;;2.56;65.00
22181;BME280;11256;50.830;12.834;2023-03-03T21:07:24;98143.84;;;2.54;64.84
22181;BME280;11256;50.830;12.834;2023-03-03T21:12:27;98155.19;;;2.50;64.67
22181;BME280;11256;50.830;12.834;2023-03-03T21:17:29;98147.00;;;2.45;64.41
22181;BME280;11256;50.830;12.834;2023-03-03T21:22:29;98141.97;;;2.55;64.73
22181;BME280;11256;50.830;12.834;2023-03-03T21:27:34;98139.09;;;2.56;64.79
22181;BME280;11256;50.830;12.834;2023-03-03T21:32:46;98141.75;;;2.56;64.85
22181;BME280;11256;50.830;12.834;2023-03-03T21:37:50;98127.69;;;2.43;64.56
22181;BME280;11256;50.830;12.834;2023-03-03T21:42:52;98132.94;;;2.56;64.70
22181;BME280;11256;50.830;12.834;2023-03-03T21:47:53;98125.94;;;2.55;64.42
22181;BME280;11256;50.830;12.834;2023-03-03T21:52:57;98116.09;;;2.49;64.58
22181;BME280;11256;50.830;12.834;2023-03-03T21:57:57;98124.34;;;2.47;64.81
22181;BME280;11256;50.830;12.834;2023-03-03T22:02:58;98129.66;;;2.54;64.87
22181;BME280;11256;50.830;12.834;2023-03-03T22:07:58;98127.19;;;2.52;64.99
22181;BME280;11256;50.830;12.834;2023-03-03T22:12:59;98120.41;;;2.50;65.27
22181;BME280;11256;50.830;12.834;2023-03-03T22:17:59;98118.78;;;2.49;64.83
22181;BME280;11256;50.830;12.834;2023-03-03T22:22:59;98118.56;;;2.50;64.76
22181;BME280;11256;50.830;12.834;2023-03-03T22:28:00;98120.03;;;2.46;64.49
22181;BME280;11256;50.830;12.834;2023-03-03T22:33:00;98110.00;;;2.42;65.21
22181;BME280;11256;50.830;12.834;2023-03-03T22:38:00;98114.91;;;2.45;64.78
22181;BME280;11256;50.830;12.834;2023-03-03T22:43:01;98119.00;;;2.47;65.39
22181;BME280;11256;50.830;12.834;2023-03-03T22:48:02;98109.13;;;2.48;64.84
22181;BME280;11256;50.830;12.834;2023-03-03T22:53:02;98089.44;;;2.42;65.13
22181;BME280;11256;50.830;12.834;2023-03-03T22:58:03;98095.97;;;2.46;65.33
22181;BME280;11256;50.830;12.834;2023-03-03T23:03:08;98089.38;;;2.49;65.05
22181;BME280;11256;50.830;12.834;2023-03-03T23:08:11;98095.53;;;2.49;65.31
22181;BME280;11256;50.830;12.834;2023-03-03T23:13:12;98089.81;;;2.46;65.14
22181;BME280;11256;50.830;12.834;2023-03-03T23:18:12;98080.75;;;2.47;64.88
22181;BME280;11256;50.830;12.834;2023-03-03T23:23:12;98081.56;;;2.47;65.35
22181;BME280;11256;50.830;12.834;2023-03-03T23:28:13;98078.47;;;2.50;65.43
22181;BME280;11256;50.830;12.834;2023-03-03T23:33:14;98063.97;;;2.40;65.28
22181;BME280;11256;50.830;12.834;2023-03-03T23:38:15;98063.50;;;2.43;65.62
22181;BME280;11256;50.830;12.834;2023-03-03T23:43:16;98057.72;;;2.46;64.92
22181;BME280;11256;50.830;12.834;2023-03-03T23:48:17;98052.00;;;2.42;65.19
22181;BME280;11256;50.830;12.834;2023-03-03T23:53:17;98061.44;;;2.45;65.30
22181;BME280;11256;50.830;12.834;2023-03-03T23:58:18;98054.03;;;2.47;65.14
